sensor_id;sensor_type;location;lat;lon;timestamp;pressure;altitude;pressure_sealevel;temperature;humidity
3206;BME280;1615;53.602;11.418;2023-04-27T00:01:12;101437.78;;;5.65;100.00
3206;BME280;1615;53.602;11.418;2023-04-27T00:03:39;101437.00;;;5.64;100.00
3206;BME280;1615;53.602;11.418;2023-04-27T00:06:05;101381.84;;;5.24;100.00
3206;BME280;1615;53.602;11.418;2023-04-27T00:08:30;101436.66;;;5.61;100.00
3206;BME280;1615;53.602;11.418;2023-04-27T00:10:56;101440.94;;;5.57;100.00
3206;BME280;1615;53.602;11.418;2023-04-27T00:13:21;101424.56;;;5.40;100.00
3206;BME280;1615;53.602;11.418;2023-04-27T00:15:47;101451.84;;;5.17;100.00
3206;BME280;1615;53.602;11.418;2023-04-27T00:18:12;101442.25;;;5.54;100.00
3206;BME280;1615;53.602;11.418;2023-04-27T00:20:38;101379.69;;;5.10;100.00
3206;BME280;1615;53.602;11.418;2023-04-27T00:23:04;101446.75;;;5.49;100.00
3206;BME280;1615;53.602;11.418;2023-04-27T00:25:29;101449.88;;;5.41;100.00
3206;BME280;1615;53.602;11.418;2023-04-27T00:27:55;101422.88;;;5.23;100.00
3206;BME280;1615;53.602;11.418;2023-04-27T00:30:20;101450.16;;;5.28;100.00
3206;BME280;1615;53.602;11.418;2023-04-27T00:32:46;101364.59;;;4.63;100.00
3206;BME280;1615;53.602;11.418;2023-04-27T00:35:11;101450.63;;;5.25;100.00
3206;BME280;1615;53.602;11.418;2023-04-27T00:37:37;101450.53;;;5.20;100.00
3206;BME280;1615;53.602;11.418;2023-04-27T00:40:03;101454.78;;;5.16;100.00
3206;BME280;1615;53.602;11.418;2023-04-27T00:42:30;101456.09;;;5.13;100.00
3206;BME280;1615;53.602;11.418;2023-04-27T00:44:56;101459.56;;;5.09;100.00
3206;BME280;1615;53.602;11.418;2023-04-27T00:47:23;101452.38;;;5.03;100.00
3206;BME280;1615;53.602;11.418;2023-04-27T00:49:48;101454.25;;;5.02;100.00
3206;BME280;1615;53.602;11.418;2023-04-27T00:52:14;101452.38;;;5.03;100.00
3206;BME280;1615;53.602;11.418;2023-04-27T00:54:39;101450.44;;;5.03;100.00
3206;BME280;1615;53.602;11.418;2023-04-27T00:57:05;101445.53;;;5.00;100.00
3206;BME280;1615;53.602;11.418;2023-04-27T00:59:30;101447.41;;;5.00;100.00
3206;BME280;1615;53.602;11.418;2023-04-27T01:01:55;101444.56;;;4.95;100.00
3206;BME280;1615;53.602;11.418;2023-04-27T01:04:21;101453.78;;;4.94;100.00
3206;BME280;1615;53.602;11.418;2023-04-27T01:06:47;101445.66;;;4.94;100.00
3206;BME280;1615;53.602;11.418;2023-04-27T01:09:12;101232.06;;;3.58;100.00
3206;BME280;1615;53.602;11.418;2023-04-27T01:11:38;101445.53;;;4.89;100.00
3206;BME280;1615;53.602;11.418;2023-04-27T01:14:04;101443.31;;;4.86;100.00
3206;BME280;1615;53.602;11.418;2023-04-27T01:16:33;101453.09;;;4.87;100.00
3206;BME280;1615;53.602;11.418;2023-04-27T01:18:59;101464.56;;;4.89;100.00
3206;BME280;1615;53.602;11.418;2023-04-27T01:21:25;101370.06;;;4.51;100.00
3206;BME280;1615;53.602;11.418;2023-04-27T01:23:51;101456.03;;;4.97;100.00
3206;BME280;1615;53.602;11.418;2023-04-27T01:26:17;101447.28;;;4.95;100.00
3206;BME280;1615;53.602;11.418;2023-04-27T01:28:42;101449.78;;;4.96;100.00
3206;BME280;1615;53.602;11.418;2023-04-27T01:31:11;101453.44;;;5.02;100.00
3206;BME280;1615;53.602;11.418;2023-04-27T01:33:37;101453.91;;;4.99;100.00
3206;BME280;1615;53.602;11.418;2023-04-27T01:36:03;101453.56;;;4.95;100.00
3206;BME280;1615;53.602;11.418;2023-04-27T01:38:29;101457.34;;;4.94;100.00
3206;BME280;1615;53.602;11.418;2023-04-27T01:40:54;101455.81;;;4.87;100.00
3206;BME280;1615;53.602;11.418;2023-04-27T01:43:26;101455.94;;;4.92;100.00
3206;BME280;1615;53.602;11.418;2023-04-27T01:45:51;101425.63;;;4.72;100.00
3206;BME280;1615;53.602;11.418;2023-04-27T01:48:16;101465.38;;;4.89;100.00
3206;BME280;1615;53.602;11.418;2023-04-27T01:50:42;101475.31;;;4.84;100.00
3206;BME280;1615;53.602;11.418;2023-04-27T01:53:07;101465.16;;;4.79;100.00
3206;BME280;1615;53.602;11.418;2023-04-27T01:55:32;101471.22;;;4.70;100.00
3206;BME280;1615;53.602;11.418;2023-04-27T01:57:57;101474.25;;;4.62;100.00
3206;BME280;1615;53.602;11.418;2023-04-27T02:00:23;101476.75;;;4.63;100.00
3206;BME280;1615;53.602;11.418;2023-04-27T02:02:48;101481.84;;;4.60;100.00
3206;BME280;1615;53.602;11.418;2023-04-27T02:05:17;101478.50;;;4.58;100.00
3206;BME280;1615;53.602;11.418;2023-04-27T02:07:43;101483.47;;;4.61;100.00
3206;BME280;1615;53.602;11.418;2023-04-27T02:10:08;101471.44;;;4.57;100.00
3206;BME280;1615;53.602;11.418;2023-04-27T02:12:34;101490.09;;;4.65;100.00
3206;BME280;1615;53.602;11.418;2023-04-27T02:14:59;101486.88;;;4.68;100.00
3206;BME280;1615;53.602;11.418;2023-04-27T02:17:25;101487.13;;;4.66;100.00
3206;BME280;1615;53.602;11.418;2023-04-27T02:19:50;101490.09;;;4.65;100.00
3206;BME280;1615;53.602;11.418;2023-04-27T02:22:16;101491.03;;;4.59;100.00
3206;BME280;1615;53.602;11.418;2023-04-27T02:24:41;101493.66;;;4.54;100.00
3206;BME280;1615;53.602;11.418;2023-04-27T02:27:06;101497.31;;;4.48;100.00
3206;BME280;1615;53.602;11.418;2023-04-27T02:29:32;101499.06;;;4.42;100.00
3206;BME280;1615;53.602;11.418;2023-04-27T02:31:57;101505.66;;;4.35;100.00
3206;BME280;1615;53.602;11.418;2023-04-27T02:34:22;101496.19;;;4.26;100.00
3206;BME280;1615;53.602;11.418;2023-04-27T02:36:48;101498.78;;;4.21;100.00
3206;BME280;1615;53.602;11.418;2023-04-27T02:39:13;101526.41;;;4.18;100.00
3206;BME280;1615;53.602;11.418;2023-04-27T02:41:38;101501.50;;;4.21;100.00
3206;BME280;1615;53.602;11.418;2023-04-27T02:44:04;101508.13;;;4.25;100.00
3206;BME280;1615;53.602;11.418;2023-04-27T02:46:29;101401.41;;;3.55;100.00
3206;BME280;1615;53.602;11.418;2023-04-27T02:48:54;101505.50;;;4.18;100.00
3206;BME280;1615;53.602;11.418;2023-04-27T02:51:20;101516.00;;;4.15;100.00
3206;BME280;1615;53.602;11.418;2023-04-27T02:53:45;101523.56;;;4.13;100.00
3206;BME280;1615;53.602;11.418;2023-04-27T02:56:11;101523.56;;;4.13;100.00
3206;BME280;1615;53.602;11.418;2023-04-27T02:58:36;101519.31;;;4.17;100.00
3206;BME280;1615;53.602;11.418;2023-04-27T03:01:02;101515.06;;;4.09;100.00
3206;BME280;1615;53.602;11.418;2023-04-27T03:03:28;101520.72;;;4.08;100.00
3206;BME280;1615;53.602;11.418;2023-04-27T03:05:54;101383.97;;;3.22;100.00
3206;BME280;1615;53.602;11.418;2023-04-27T03:08:19;101520.44;;;3.98;100.00
3206;BME280;1615;53.602;11.418;2023-04-27T03:10:44;101286.66;;;2.50;100.00
3206;BME280;1615;53.602;11.418;2023-04-27T03:13:10;101517.59;;;3.93;100.00
3206;BME280;1615;53.602;11.418;2023-04-27T03:15:35;101519.38;;;3.99;100.00
3206;BME280;1615;53.602;11.418;2023-04-27T03:18:00;101515.50;;;3.95;100.00
3206;BME280;1615;53.602;11.418;2023-04-27T03:20:26;101519.03;;;3.95;100.00
3206;BME280;1615;53.602;11.418;2023-04-27T03:22:51;101517.72;;;3.98;100.00
3206;BME280;1615;53.602;11.418;2023-04-27T03:25:16;101503.09;;;3.87;100.00
3206;BME280;1615;53.602;11.418;2023-04-27T03:27:42;101528.00;;;3.96;100.00
3206;BME280;1615;53.602;11.418;2023-04-27T03:30:08;101419.25;;;3.33;100.00
3206;BME280;1615;53.602;11.418;2023-04-27T03:32:33;101514.75;;;3.88;100.00
3206;BME280;1615;53.602;11.418;2023-04-27T03:34:59;101529.97;;;3.89;100.00
3206;BME280;1615;53.602;11.418;2023-04-27T03:37:24;101531.03;;;3.88;100.00
3206;BME280;1615;53.602;11.418;2023-04-27T03:39:49;101534.34;;;3.90;100.00
3206;BME280;1615;53.602;11.418;2023-04-27T03:42:15;101537.19;;;3.95;100.00
3206;BME280;1615;53.602;11.418;2023-04-27T03:44:40;101538.38;;;3.99;100.00
3206;BME280;1615;53.602;11.418;2023-04-27T03:47:06;101529.19;;;4.00;100.00
3206;BME280;1615;53.602;11.418;2023-04-27T03:49:33;101528.13;;;4.01;100.00
3206;BME280;1615;53.602;11.418;2023-04-27T03:51:59;101395.25;;;3.19;100.00
3206;BME280;1615;53.602;11.418;2023-04-27T03:54:24;101499.13;;;3.72;100.00
3206;BME280;1615;53.602;11.418;2023-04-27T03:56:49;101541.88;;;3.88;100.00
3206;BME280;1615;53.602;11.418;2023-04-27T03:59:15;101540.22;;;3.87;100.00
3206;BME280;1615;53.602;11.418;2023-04-27T04:01:40;101538.00;;;3.84;100.00
3206;BME280;1615;53.602;11.418;2023-04-27T04:04:05;101537.38;;;3.82;100.00
3206;BME280;1615;53.602;11.418;2023-04-27T04:06:31;101566.97;;;3.83;100.00
3206;BME280;1615;53.602;11.418;2023-04-27T04:08:57;101545.50;;;3.82;100.00
3206;BME280;1615;53.602;11.418;2023-04-27T04:11:22;101499.84;;;3.67;100.00
3206;BME280;1615;53.602;11.418;2023-04-27T04:13:47;101537.66;;;3.92;100.00
3206;BME280;1615;53.602;11.418;2023-04-27T04:16:13;101501.25;;;3.70;100.00
3206;BME280;1615;53.602;11.418;2023-04-27T04:18:38;101536.28;;;4.01;100.00
3206;BME280;1615;53.602;11.418;2023-04-27T04:21:03;101518.44;;;3.93;100.00
3206;BME280;1615;53.602;11.418;2023-04-27T04:23:29;101561.28;;;4.03;100.00
3206;BME280;1615;53.602;11.418;2023-04-27T04:25:54;101413.72;;;3.10;100.00
3206;BME280;1615;53.602;11.418;2023-04-27T04:28:23;101566.19;;;3.94;100.00
3206;BME280;1615;53.602;11.418;2023-04-27T04:30:49;101567.94;;;3.89;100.00
3206;BME280;1615;53.602;11.418;2023-04-27T04:33:15;101587.19;;;3.99;100.00
3206;BME280;1615;53.602;11.418;2023-04-27T04:35:41;101557.84;;;3.96;100.00
3206;BME280;1615;53.602;11.418;2023-04-27T04:38:07;101417.28;;;3.22;100.00
3206;BME280;1615;53.602;11.418;2023-04-27T04:40:32;101551.97;;;4.10;100.00
3206;BME280;1615;53.602;11.418;2023-04-27T04:42:58;101548.09;;;4.18;100.00
3206;BME280;1615;53.602;11.418;2023-04-27T04:45:23;101545.31;;;4.36;100.00
3206;BME280;1615;53.602;11.418;2023-04-27T04:47:48;101560.91;;;4.52;100.00
3206;BME280;1615;53.602;11.418;2023-04-27T04:50:14;101555.81;;;4.55;100.00
3206;BME280;1615;53.602;11.418;2023-04-27T04:52:39;101564.47;;;4.64;100.00
3206;BME280;1615;53.602;11.418;2023-04-27T04:55:05;101558.56;;;4.67;100.00
3206;BME280;1615;53.602;11.418;2023-04-27T04:57:30;101556.81;;;4.72;100.00
3206;BME280;1615;53.602;11.418;2023-04-27T04:59:56;101557.97;;;4.65;100.00
3206;BME280;1615;53.602;11.418;2023-04-27T05:02:21;101541.56;;;4.60;100.00
3206;BME280;1615;53.602;11.418;2023-04-27T05:04:46;101553.94;;;4.79;100.00
3206;BME280;1615;53.602;11.418;2023-04-27T05:07:12;101565.44;;;4.81;100.00
3206;BME280;1615;53.602;11.418;2023-04-27T05:09:38;101493.41;;;4.44;100.00
3206;BME280;1615;53.602;11.418;2023-04-27T05:12:03;101410.06;;;4.10;100.00
3206;BME280;1615;53.602;11.418;2023-04-27T05:14:29;101569.16;;;5.26;100.00
3206;BME280;1615;53.602;11.418;2023-04-27T05:16:54;101562.53;;;5.45;100.00
3206;BME280;1615;53.602;11.418;2023-04-27T05:19:19;101555.16;;;5.57;100.00
3206;BME280;1615;53.602;11.418;2023-04-27T05:21:45;101503.66;;;5.39;100.00
3206;BME280;1615;53.602;11.418;2023-04-27T05:24:11;101566.66;;;5.87;100.00
3206;BME280;1615;53.602;11.418;2023-04-27T05:26:41;101565.78;;;5.98;100.00
3206;BME280;1615;53.602;11.418;2023-04-27T05:29:07;101565.56;;;6.16;100.00
3206;BME280;1615;53.602;11.418;2023-04-27T05:31:32;101541.66;;;6.18;100.00
3206;BME280;1615;53.602;11.418;2023-04-27T05:33:58;101563.41;;;6.46;100.00
3206;BME280;1615;53.602;11.418;2023-04-27T05:36:23;101562.97;;;6.54;100.00
3206;BME280;1615;53.602;11.418;2023-04-27T05:38:48;101569.44;;;6.64;100.00
3206;BME280;1615;53.602;11.418;2023-04-27T05:41:14;101573.22;;;6.80;100.00
3206;BME280;1615;53.602;11.418;2023-04-27T05:43:39;101570.06;;;6.88;100.00
3206;BME280;1615;53.602;11.418;2023-04-27T05:46:05;101562.94;;;6.87;100.00
3206;BME280;1615;53.602;11.418;2023-04-27T05:48:30;101578.97;;;7.00;100.00
3206;BME280;1615;53.602;11.418;2023-04-27T05:51:02;101580.19;;;7.09;100.00
3206;BME280;1615;53.602;11.418;2023-04-27T05:53:28;101577.91;;;7.22;100.00
3206;BME280;1615;53.602;11.418;2023-04-27T05:55:55;101461.78;;;6.62;100.00
3206;BME280;1615;53.602;11.418;2023-04-27T05:58:21;101582.34;;;7.45;100.00
3206;BME280;1615;53.602;11.418;2023-04-27T06:00:46;101581.97;;;7.58;100.00
3206;BME280;1615;53.602;11.418;2023-04-27T06:03:11;101578.78;;;7.66;100.00
3206;BME280;1615;53.602;11.418;2023-04-27T06:05:37;101575.16;;;7.82;100.00
3206;BME280;1615;53.602;11.418;2023-04-27T06:08:02;101575.28;;;7.92;100.00
3206;BME280;1615;53.602;11.418;2023-04-27T06:10:27;101578.56;;;7.94;100.00
3206;BME280;1615;53.602;11.418;2023-04-27T06:12:53;101586.81;;;7.99;100.00
3206;BME280;1615;53.602;11.418;2023-04-27T06:15:18;101585.34;;;8.13;100.00
3206;BME280;1615;53.602;11.418;2023-04-27T06:17:44;101586.28;;;8.23;100.00
3206;BME280;1615;53.602;11.418;2023-04-27T06:20:10;101586.63;;;8.27;100.00
3206;BME280;1615;53.602;11.418;2023-04-27T06:22:36;101586.88;;;8.25;100.00
3206;BME280;1615;53.602;11.418;2023-04-27T06:25:03;101579.09;;;8.39;100.00
3206;BME280;1615;53.602;11.418;2023-04-27T06:27:28;101583.50;;;8.45;100.00
3206;BME280;1615;53.602;11.418;2023-04-27T06:29:54;101587.63;;;8.47;100.00
3206;BME280;1615;53.602;11.418;2023-04-27T06:32:19;101586.28;;;8.50;100.00
3206;BME280;1615;53.602;11.418;2023-04-27T06:34:45;101589.38;;;8.58;100.00
3206;BME280;1615;53.602;11.418;2023-04-27T06:37:10;101582.34;;;8.67;100.00
3206;BME280;1615;53.602;11.418;2023-04-27T06:39:36;101590.91;;;8.76;100.00
3206;BME280;1615;53.602;11.418;2023-04-27T06:42:01;101590.34;;;8.79;100.00
3206;BME280;1615;53.602;11.418;2023-04-27T06:44:28;101585.72;;;8.79;100.00
3206;BME280;1615;53.602;11.418;2023-04-27T06:46:53;101587.69;;;8.89;100.00
3206;BME280;1615;53.602;11.418;2023-04-27T06:49:19;101583.31;;;8.88;100.00
3206;BME280;1615;53.602;11.418;2023-04-27T06:51:44;101589.34;;;8.90;100.00
3206;BME280;1615;53.602;11.418;2023-04-27T06:54:11;101591.88;;;8.96;100.00
3206;BME280;1615;53.602;11.418;2023-04-27T06:56:36;101596.53;;;9.01;100.00
3206;BME280;1615;53.602;11.418;2023-04-27T06:59:02;101590.22;;;8.95;100.00
3206;BME280;1615;53.602;11.418;2023-04-27T07:01:27;101590.50;;;8.99;100.00
3206;BME280;1615;53.602;11.418;2023-04-27T07:03:52;101598.78;;;9.09;100.00
3206;BME280;1615;53.602;11.418;2023-04-27T07:06:19;101587.94;;;9.24;100.00
3206;BME280;1615;53.602;11.418;2023-04-27T07:08:44;101585.00;;;9.35;100.00
3206;BME280;1615;53.602;11.418;2023-04-27T07:11:09;101588.06;;;9.49;100.00
3206;BME280;1615;53.602;11.418;2023-04-27T07:13:35;101594.69;;;9.53;100.00
3206;BME280;1615;53.602;11.418;2023-04-27T07:16:00;101588.09;;;9.54;100.00
3206;BME280;1615;53.602;11.418;2023-04-27T07:18:26;101584.88;;;9.62;100.00
3206;BME280;1615;53.602;11.418;2023-04-27T07:20:53;101587.63;;;9.67;100.00
3206;BME280;1615;53.602;11.418;2023-04-27T07:23:18;101588.16;;;9.64;100.00
3206;BME280;1615;53.602;11.418;2023-04-27T07:25:44;101593.38;;;9.65;100.00
3206;BME280;1615;53.602;11.418;2023-04-27T07:28:11;101500.91;;;9.16;100.00
3206;BME280;1615;53.602;11.418;2023-04-27T07:30:36;101594.81;;;9.83;100.00
3206;BME280;1615;53.602;11.418;2023-04-27T07:33:02;101597.03;;;9.96;100.00
3206;BME280;1615;53.602;11.418;2023-04-27T07:35:27;101475.47;;;9.15;100.00
3206;BME280;1615;53.602;11.418;2023-04-27T07:37:53;101610.19;;;9.94;100.00
3206;BME280;1615;53.602;11.418;2023-04-27T07:40:19;101264.69;;;8.04;100.00
3206;BME280;1615;53.602;11.418;2023-04-27T07:42:44;101566.47;;;10.14;100.00
3206;BME280;1615;53.602;11.418;2023-04-27T07:45:10;101610.34;;;10.44;100.00
3206;BME280;1615;53.602;11.418;2023-04-27T07:47:36;101604.63;;;10.50;100.00
3206;BME280;1615;53.602;11.418;2023-04-27T07:50:02;101597.78;;;10.73;100.00
3206;BME280;1615;53.602;11.418;2023-04-27T07:52:28;101594.75;;;10.94;100.00
3206;BME280;1615;53.602;11.418;2023-04-27T07:54:53;101604.06;;;11.03;100.00
3206;BME280;1615;53.602;11.418;2023-04-27T07:57:18;101609.28;;;11.10;100.00
3206;BME280;1615;53.602;11.418;2023-04-27T07:59:44;101607.91;;;11.12;100.00
3206;BME280;1615;53.602;11.418;2023-04-27T08:02:09;101601.06;;;11.10;100.00
3206;BME280;1615;53.602;11.418;2023-04-27T08:04:35;101605.44;;;11.21;100.00
3206;BME280;1615;53.602;11.418;2023-04-27T08:07:00;101602.38;;;11.37;100.00
3206;BME280;1615;53.602;11.418;2023-04-27T08:09:26;101607.03;;;11.42;100.00
3206;BME280;1615;53.602;11.418;2023-04-27T08:11:51;101601.22;;;11.48;100.00
3206;BME280;1615;53.602;11.418;2023-04-27T08:14:16;101604.81;;;11.44;100.00
3206;BME280;1615;53.602;11.418;2023-04-27T08:16:42;101594.69;;;11.44;100.00
3206;BME280;1615;53.602;11.418;2023-04-27T08:19:09;101627.31;;;11.61;96.79
3206;BME280;1615;53.602;11.418;2023-04-27T08:21:35;101610.31;;;11.64;96.53
3206;BME280;1615;53.602;11.418;2023-04-27T08:24:02;101611.94;;;11.65;94.62
3206;BME280;1615;53.602;11.418;2023-04-27T08:26:27;101610.53;;;11.72;92.64
3206;BME280;1615;53.602;11.418;2023-04-27T08:28:52;101609.16;;;11.80;94.08
3206;BME280;1615;53.602;11.418;2023-04-27T08:31:18;101539.97;;;11.58;93.70
3206;BME280;1615;53.602;11.418;2023-04-27T08:33:43;101612.34;;;12.02;90.11
3206;BME280;1615;53.602;11.418;2023-04-27T08:36:09;101607.94;;;12.01;90.46
3206;BME280;1615;53.602;11.418;2023-04-27T08:38:34;101538.28;;;11.72;93.61
3206;BME280;1615;53.602;11.418;2023-04-27T08:41:00;101606.16;;;12.25;93.29
3206;BME280;1615;53.602;11.418;2023-04-27T08:43:25;101611.69;;;12.20;89.14
3206;BME280;1615;53.602;11.418;2023-04-27T08:45:50;101599.03;;;12.24;84.90
3206;BME280;1615;53.602;11.418;2023-04-27T08:48:17;101583.59;;;12.28;82.95
3206;BME280;1615;53.602;11.418;2023-04-27T08:50:43;101596.44;;;12.42;82.93
3206;BME280;1615;53.602;11.418;2023-04-27T08:53:16;101596.75;;;12.36;84.28
3206;BME280;1615;53.602;11.418;2023-04-27T08:55:42;101608.81;;;12.40;86.16
3206;BME280;1615;53.602;11.418;2023-04-27T08:58:07;101590.19;;;12.32;85.85
3206;BME280;1615;53.602;11.418;2023-04-27T09:00:40;101593.47;;;12.34;84.40
3206;BME280;1615;53.602;11.418;2023-04-27T09:03:07;101598.03;;;12.48;82.43
3206;BME280;1615;53.602;11.418;2023-04-27T09:05:33;101354.66;;;11.02;82.32
3206;BME280;1615;53.602;11.418;2023-04-27T09:08:02;101599.78;;;12.73;79.05
3206;BME280;1615;53.602;11.418;2023-04-27T09:10:32;101600.88;;;12.72;78.18
3206;BME280;1615;53.602;11.418;2023-04-27T09:13:07;101603.19;;;12.60;79.79
3206;BME280;1615;53.602;11.418;2023-04-27T09:15:47;101592.78;;;12.52;82.95
3206;BME280;1615;53.602;11.418;2023-04-27T09:18:18;101602.19;;;12.46;82.64
3206;BME280;1615;53.602;11.418;2023-04-27T09:20:45;101603.34;;;12.35;84.48
3206;BME280;1615;53.602;11.418;2023-04-27T09:23:11;101592.44;;;12.20;84.84
3206;BME280;1615;53.602;11.418;2023-04-27T09:25:36;101585.88;;;12.16;83.21
3206;BME280;1615;53.602;11.418;2023-04-27T09:28:02;101578.91;;;12.28;85.65
3206;BME280;1615;53.602;11.418;2023-04-27T09:30:28;101587.06;;;12.43;87.85
3206;BME280;1615;53.602;11.418;2023-04-27T09:32:56;101580.91;;;12.61;81.20
3206;BME280;1615;53.602;11.418;2023-04-27T09:35:24;101583.91;;;12.65;76.47
3206;BME280;1615;53.602;11.418;2023-04-27T09:37:51;101531.41;;;12.23;78.15
3206;BME280;1615;53.602;11.418;2023-04-27T09:40:18;101582.16;;;12.74;77.14
3206;BME280;1615;53.602;11.418;2023-04-27T09:42:45;101519.16;;;12.44;71.56
3206;BME280;1615;53.602;11.418;2023-04-27T09:45:10;101567.50;;;12.83;70.34
3206;BME280;1615;53.602;11.418;2023-04-27T09:47:37;101504.19;;;12.55;66.82
3206;BME280;1615;53.602;11.418;2023-04-27T09:50:04;101506.28;;;12.68;64.44
3206;BME280;1615;53.602;11.418;2023-04-27T09:52:29;101562.41;;;13.29;69.40
3206;BME280;1615;53.602;11.418;2023-04-27T09:54:56;101561.66;;;13.47;61.97
3206;BME280;1615;53.602;11.418;2023-04-27T09:57:26;101560.53;;;13.48;59.48
3206;BME280;1615;53.602;11.418;2023-04-27T10:00:09;101562.44;;;13.52;63.05
3206;BME280;1615;53.602;11.418;2023-04-27T10:03:06;101570.63;;;13.57;68.16
3206;BME280;1615;53.602;11.418;2023-04-27T10:05:45;101568.69;;;13.58;60.53
3206;BME280;1615;53.602;11.418;2023-04-27T10:08:19;101512.34;;;13.22;62.15
3206;BME280;1615;53.602;11.418;2023-04-27T10:10:49;101570.25;;;13.64;62.79
3206;BME280;1615;53.602;11.418;2023-04-27T10:13:24;101558.53;;;13.53;65.48
3206;BME280;1615;53.602;11.418;2023-04-27T10:15:51;101543.03;;;13.39;63.35
3206;BME280;1615;53.602;11.418;2023-04-27T10:18:29;101557.03;;;13.42;58.80
3206;BME280;1615;53.602;11.418;2023-04-27T10:20:56;101480.66;;;13.01;58.72
3206;BME280;1615;53.602;11.418;2023-04-27T10:23:25;101563.72;;;13.60;59.40
3206;BME280;1615;53.602;11.418;2023-04-27T10:25:51;101567.22;;;13.65;57.44
3206;BME280;1615;53.602;11.418;2023-04-27T10:28:17;101518.91;;;13.26;58.02
3206;BME280;1615;53.602;11.418;2023-04-27T10:30:45;101558.19;;;13.60;56.58
3206;BME280;1615;53.602;11.418;2023-04-27T10:33:15;101559.34;;;13.77;58.22
3206;BME280;1615;53.602;11.418;2023-04-27T10:35:42;101546.56;;;14.05;60.07
3206;BME280;1615;53.602;11.418;2023-04-27T10:40:34;101563.03;;;14.10;51.86
3206;BME280;1615;53.602;11.418;2023-04-27T10:43:11;101553.53;;;14.21;54.34
3206;BME280;1615;53.602;11.418;2023-04-27T10:45:37;101544.75;;;14.37;53.50
3206;BME280;1615;53.602;11.418;2023-04-27T10:48:03;101510.28;;;13.98;50.69
3206;BME280;1615;53.602;11.418;2023-04-27T10:50:29;101549.50;;;14.32;53.68
3206;BME280;1615;53.602;11.418;2023-04-27T10:53:00;101558.28;;;14.34;54.95
3206;BME280;1615;53.602;11.418;2023-04-27T10:55:27;101505.63;;;14.12;53.63
3206;BME280;1615;53.602;11.418;2023-04-27T10:57:53;101555.75;;;14.56;55.85
3206;BME280;1615;53.602;11.418;2023-04-27T11:00:37;101561.72;;;14.44;54.81
3206;BME280;1615;53.602;11.418;2023-04-27T11:03:14;101555.47;;;14.39;53.61
3206;BME280;1615;53.602;11.418;2023-04-27T11:05:42;101305.97;;;12.93;56.90
3206;BME280;1615;53.602;11.418;2023-04-27T11:08:12;101566.50;;;14.39;57.28
3206;BME280;1615;53.602;11.418;2023-04-27T11:10:39;101548.66;;;14.50;54.70
3206;BME280;1615;53.602;11.418;2023-04-27T11:13:08;101567.56;;;14.75;57.75
3206;BME280;1615;53.602;11.418;2023-04-27T11:15:48;101556.44;;;14.80;54.76
3206;BME280;1615;53.602;11.418;2023-04-27T11:18:16;101565.25;;;14.82;55.98
3206;BME280;1615;53.602;11.418;2023-04-27T11:20:43;101569.38;;;14.66;52.87
3206;BME280;1615;53.602;11.418;2023-04-27T11:23:09;101569.03;;;14.86;55.18
3206;BME280;1615;53.602;11.418;2023-04-27T11:25:36;101507.03;;;14.65;55.81
3206;BME280;1615;53.602;11.418;2023-04-27T11:28:01;101557.19;;;14.85;52.86
3206;BME280;1615;53.602;11.418;2023-04-27T11:30:28;101575.59;;;14.58;55.25
3206;BME280;1615;53.602;11.418;2023-04-27T11:32:54;101564.84;;;14.38;59.53
3206;BME280;1615;53.602;11.418;2023-04-27T11:35:19;101573.50;;;14.50;57.74
3206;BME280;1615;53.602;11.418;2023-04-27T11:37:55;101561.44;;;14.46;58.19
3206;BME280;1615;53.602;11.418;2023-04-27T11:40:22;101578.56;;;14.43;55.85
3206;BME280;1615;53.602;11.418;2023-04-27T11:42:56;101511.31;;;14.02;57.34
3206;BME280;1615;53.602;11.418;2023-04-27T11:45:24;101583.16;;;14.66;58.18
3206;BME280;1615;53.602;11.418;2023-04-27T11:47:51;101456.41;;;14.05;62.06
3206;BME280;1615;53.602;11.418;2023-04-27T11:50:17;101582.00;;;14.72;60.20
3206;BME280;1615;53.602;11.418;2023-04-27T11:52:47;101576.63;;;14.62;58.44
3206;BME280;1615;53.602;11.418;2023-04-27T11:55:15;101572.66;;;14.68;58.55
3206;BME280;1615;53.602;11.418;2023-04-27T11:57:41;101584.59;;;14.63;58.14
3206;BME280;1615;53.602;11.418;2023-04-27T12:00:07;101569.28;;;14.71;58.59
3206;BME280;1615;53.602;11.418;2023-04-27T12:02:37;101571.47;;;14.74;58.51
3206;BME280;1615;53.602;11.418;2023-04-27T12:05:03;101570.00;;;14.63;55.13
3206;BME280;1615;53.602;11.418;2023-04-27T12:07:29;101579.63;;;14.47;55.14
3206;BME280;1615;53.602;11.418;2023-04-27T12:09:54;101576.38;;;14.58;56.56
3206;BME280;1615;53.602;11.418;2023-04-27T12:12:20;101565.66;;;14.75;55.36
3206;BME280;1615;53.602;11.418;2023-04-27T12:14:49;101495.88;;;14.38;54.72
3206;BME280;1615;53.602;11.418;2023-04-27T12:17:15;101513.19;;;14.43;54.09
3206;BME280;1615;53.602;11.418;2023-04-27T12:19:40;101565.81;;;14.97;54.98
3206;BME280;1615;53.602;11.418;2023-04-27T12:22:06;101577.41;;;15.13;52.38
3206;BME280;1615;53.602;11.418;2023-04-27T12:24:32;101576.38;;;15.22;52.39
3206;BME280;1615;53.602;11.418;2023-04-27T12:26:57;101570.31;;;15.07;53.89
3206;BME280;1615;53.602;11.418;2023-04-27T12:29:23;101575.03;;;15.06;53.84
3206;BME280;1615;53.602;11.418;2023-04-27T12:31:49;101576.97;;;15.06;55.98
3206;BME280;1615;53.602;11.418;2023-04-27T12:34:15;101586.03;;;14.93;56.56
3206;BME280;1615;53.602;11.418;2023-04-27T12:36:40;101576.19;;;14.87;57.36
3206;BME280;1615;53.602;11.418;2023-04-27T12:39:17;101582.34;;;14.84;59.40
3206;BME280;1615;53.602;11.418;2023-04-27T12:41:44;101546.88;;;14.91;60.95
3206;BME280;1615;53.602;11.418;2023-04-27T12:44:10;101574.97;;;15.25;58.84
3206;BME280;1615;53.602;11.418;2023-04-27T12:46:37;101574.00;;;15.48;57.53
3206;BME280;1615;53.602;11.418;2023-04-27T12:49:02;101582.81;;;15.50;53.74
3206;BME280;1615;53.602;11.418;2023-04-27T12:51:28;101589.38;;;15.54;52.45
3206;BME280;1615;53.602;11.418;2023-04-27T12:53:53;101543.34;;;15.17;50.28
3206;BME280;1615;53.602;11.418;2023-04-27T12:56:19;101587.19;;;15.51;49.23
3206;BME280;1615;53.602;11.418;2023-04-27T12:58:44;101580.69;;;15.47;53.09